Terminal Aerodrome Forecast
Issued by NWS

Home | Current Version | Previous Version | Text Only | Print | Product List | Glossary On
Versions: 1 2 3 4 5 6 7 8 9 10 11 12 13 14
000
FTUS44 KLIX 011128
TAFMCB
TAF
KMCB 011128Z 0112/0212 00000KT 4SM BR SKC
      TEMPO 0112/0113 4SM BR SKC
     FM011400 36004KT P6SM SCT035
     FM011900 13006KT P6SM SCT040
     FM012330 VRB03KT P6SM FEW040
     FM020800 VRB03KT 4SM BR SKC=

USA.gov is the U.S. government's official web portal to all federal, state and local government web resources and services.